createdAt,value
2019-01-18T00:00:37.307Z,62.99
2019-01-18T00:03:03.720Z,62.76
2019-01-18T00:05:30.175Z,62.61
2019-01-18T00:07:56.462Z,62.34
2019-01-18T00:10:23.061Z,62.92
2019-01-18T00:12:49.636Z,63.05
2019-01-18T00:15:16.075Z,63.37
2019-01-18T00:17:42.382Z,63.53
2019-01-18T00:20:14.100Z,63.99
2019-01-18T00:22:41.393Z,63.37
2019-01-18T00:25:08.149Z,64.31
2019-01-18T00:27:34.735Z,64.17
2019-01-18T00:30:01.994Z,63.96
2019-01-18T00:32:28.420Z,63.52
2019-01-18T00:34:54.795Z,63.16
2019-01-18T00:37:21.112Z,62.78
2019-01-18T00:39:47.462Z,62.65
2019-01-18T00:42:14.051Z,62.51
2019-01-18T00:44:40.637Z,63.08
2019-01-18T00:47:06.942Z,63.14
2019-01-18T00:49:33.529Z,63.28
2019-01-18T00:51:59.842Z,62.66
2019-01-18T00:54:26.425Z,62.34
2019-01-18T00:56:53.010Z,62.41
2019-01-18T00:59:19.334Z,62.61
2019-01-18T01:01:45.665Z,62.38
2019-01-18T01:04:12.030Z,62.45
2019-01-18T01:06:38.453Z,62.16
2019-01-18T01:09:05.272Z,62.87
2019-01-18T01:11:32.202Z,62.75
2019-01-18T01:13:58.632Z,63.01
2019-01-18T01:16:25.209Z,63.83
2019-01-18T01:18:51.515Z,63.25
2019-01-18T01:21:17.824Z,63.45
2019-01-18T01:23:44.404Z,64.42
2019-01-18T01:26:11.002Z,64.06
2019-01-18T01:28:37.329Z,64.05
2019-01-18T01:31:03.947Z,64.81
2019-01-18T01:33:32.037Z,64.74
2019-01-18T01:35:58.353Z,64.72
2019-01-18T01:38:24.959Z,65.14
2019-01-18T01:40:51.613Z,64.48
2019-01-18T01:43:18.052Z,64.77
2019-01-18T01:45:44.358Z,64.67
2019-01-18T01:48:10.980Z,64.98
2019-01-18T01:50:37.556Z,64.91
2019-01-18T01:53:03.868Z,64.90
2019-01-18T01:55:30.164Z,65.33
2019-01-18T01:57:56.751Z,65.58
2019-01-18T02:00:25.597Z,65.38
2019-01-18T02:02:51.903Z,65.33
2019-01-18T02:05:18.416Z,65.03
2019-01-18T02:07:44.837Z,65.28
2019-01-18T02:10:15.083Z,65.51
2019-01-18T02:12:42.502Z,65.57
2019-01-18T02:15:12.935Z,65.37
2019-01-18T02:17:39.605Z,65.54
2019-01-18T02:20:13.711Z,66.28
2019-01-18T02:22:40.045Z,65.51
2019-01-18T02:25:07.244Z,65.37
2019-01-18T02:27:33.864Z,65.20
2019-01-18T02:30:00.406Z,64.77
2019-01-18T02:32:26.998Z,64.51
2019-01-18T02:34:53.547Z,64.89
2019-01-18T02:37:19.890Z,64.14
2019-01-18T02:39:46.298Z,63.29
2019-01-18T02:42:12.630Z,63.52
2019-01-18T02:44:38.964Z,63.96
2019-01-18T02:47:05.259Z,63.31
2019-01-18T02:49:31.881Z,64.00
2019-01-18T02:51:58.199Z,64.22
2019-01-18T02:54:24.818Z,64.21
2019-01-18T02:56:51.448Z,64.77
2019-01-18T02:59:18.015Z,64.46
2019-01-18T03:01:45.614Z,64.72
2019-01-18T03:04:12.458Z,64.49
2019-01-18T03:06:38.770Z,65.06
2019-01-18T03:09:07.332Z,65.30
2019-01-18T03:11:33.695Z,65.45
2019-01-18T03:14:00.287Z,64.83
2019-01-18T03:16:26.594Z,65.22
2019-01-18T03:18:52.923Z,65.59
2019-01-18T03:21:19.232Z,64.92
2019-01-18T03:23:45.561Z,64.99
2019-01-18T03:26:11.846Z,65.75
2019-01-18T03:28:38.542Z,65.77
2019-01-18T03:31:04.842Z,65.83
2019-01-18T03:33:31.161Z,66.20
2019-01-18T03:35:57.480Z,66.10
2019-01-18T03:38:24.100Z,66.45
2019-01-18T03:40:50.430Z,66.91
2019-01-18T03:43:16.747Z,66.61
2019-01-18T03:45:43.079Z,66.68
2019-01-18T03:48:09.391Z,66.47
2019-01-18T03:50:35.724Z,66.62
2019-01-18T03:53:02.031Z,66.24
2019-01-18T03:55:28.333Z,66.39
2019-01-18T03:57:54.671Z,65.62
2019-01-18T04:00:26.151Z,66.19
2019-01-18T04:02:52.640Z,65.84
2019-01-18T04:05:19.230Z,65.53
2019-01-18T04:07:45.579Z,65.20
2019-01-18T04:10:15.973Z,65.39
2019-01-18T04:12:42.630Z,64.86
2019-01-18T04:15:12.851Z,64.63
2019-01-18T04:17:39.163Z,65.20
2019-01-18T04:20:10.473Z,64.95
2019-01-18T04:22:36.771Z,65.12
2019-01-18T04:25:07.813Z,64.91
2019-01-18T04:27:34.491Z,64.79
2019-01-18T04:30:00.798Z,64.38
2019-01-18T04:32:27.128Z,64.12
2019-01-18T04:34:53.723Z,64.26
2019-01-18T04:37:20.057Z,64.13
2019-01-18T04:39:46.393Z,64.54
2019-01-18T04:42:12.664Z,64.56
2019-01-18T04:44:39.323Z,64.48
2019-01-18T04:47:05.635Z,64.53
2019-01-18T04:49:34.655Z,65.82
2019-01-18T04:52:01.213Z,67.05
2019-01-18T04:54:27.513Z,67.46
2019-01-18T04:56:54.092Z,70.64
2019-01-18T04:59:20.399Z,74.07
2019-01-18T05:01:47.070Z,74.97
2019-01-18T05:04:13.636Z,73.88
2019-01-18T05:06:39.984Z,74.20
2019-01-18T05:09:06.372Z,73.25
2019-01-18T05:11:32.735Z,73.83
2019-01-18T05:13:59.335Z,72.15
2019-01-18T05:16:26.253Z,69.79
2019-01-18T05:18:52.626Z,68.72
2019-01-18T05:21:18.989Z,68.31
2019-01-18T05:23:45.348Z,67.94
2019-01-18T05:26:11.678Z,68.96
2019-01-18T05:28:38.010Z,69.49
2019-01-18T05:31:04.340Z,68.94
2019-01-18T05:33:30.681Z,68.08
2019-01-18T05:35:57.261Z,67.86
2019-01-18T05:38:23.596Z,67.31
2019-01-18T05:40:50.238Z,66.55
2019-01-18T05:43:16.581Z,66.51
2019-01-18T05:45:43.002Z,66.66
2019-01-18T05:48:09.617Z,67.85
2019-01-18T05:50:35.967Z,69.15
2019-01-18T05:53:03.596Z,70.46
2019-01-18T05:55:29.951Z,69.18
2019-01-18T05:57:56.550Z,69.14
2019-01-18T06:00:37.563Z,68.27
2019-01-18T06:03:04.213Z,68.27
2019-01-18T06:05:33.897Z,67.47
2019-01-18T06:08:00.254Z,66.59
2019-01-18T06:10:26.558Z,67.51
2019-01-18T06:12:53.184Z,67.58
2019-01-18T06:15:19.569Z,66.94
2019-01-18T06:17:45.879Z,66.73
2019-01-18T06:20:14.788Z,66.45
2019-01-18T06:22:41.383Z,66.65
2019-01-18T06:25:07.705Z,66.02
2019-01-18T06:27:34.036Z,66.60
2019-01-18T06:30:00.349Z,65.97
2019-01-18T06:32:26.683Z,65.51
2019-01-18T06:34:53.259Z,65.84
2019-01-18T06:37:20.335Z,65.53
2019-01-18T06:39:46.672Z,67.19
2019-01-18T06:42:13.248Z,68.75
2019-01-18T06:44:39.565Z,69.86
2019-01-18T06:47:05.935Z,71.31
2019-01-18T06:49:32.574Z,71.53
2019-01-18T06:51:59.480Z,71.62
2019-01-18T06:54:25.787Z,71.09
2019-01-18T06:56:52.442Z,71.08
2019-01-18T06:59:18.764Z,70.42
2019-01-18T07:01:45.119Z,70.58
2019-01-18T07:04:11.739Z,69.95
2019-01-18T07:06:38.081Z,70.14
2019-01-18T07:09:06.279Z,69.70
2019-01-18T07:11:32.965Z,70.44
2019-01-18T07:13:59.571Z,70.80
2019-01-18T07:16:25.923Z,70.69
2019-01-18T07:18:52.234Z,71.50
2019-01-18T07:21:18.849Z,71.00
2019-01-18T07:23:45.198Z,69.93
2019-01-18T07:26:11.519Z,68.96
2019-01-18T07:28:38.087Z,68.40
2019-01-18T07:31:06.333Z,68.71
2019-01-18T07:33:32.678Z,68.61
2019-01-18T07:35:58.988Z,67.74
2019-01-18T07:38:25.614Z,67.37
2019-01-18T07:40:51.981Z,67.16
2019-01-18T07:43:18.558Z,65.81
2019-01-18T07:45:44.980Z,65.67
2019-01-18T07:48:11.312Z,64.03
2019-01-18T07:50:37.987Z,63.19
2019-01-18T07:53:04.597Z,62.50
2019-01-18T07:55:30.928Z,62.77
2019-01-18T07:57:57.257Z,62.61
2019-01-18T08:00:26.586Z,62.19
2019-01-18T08:02:52.910Z,61.89
2019-01-18T08:05:21.199Z,62.75
2019-01-18T08:07:47.642Z,62.59
2019-01-18T08:10:20.420Z,62.10
2019-01-18T08:12:46.875Z,61.05
2019-01-18T08:15:16.412Z,61.22
2019-01-18T08:17:42.781Z,61.43
2019-01-18T08:20:15.974Z,62.01
2019-01-18T08:22:42.696Z,61.63
2019-01-18T08:25:12.918Z,62.60
2019-01-18T08:27:39.507Z,63.32
2019-01-18T08:30:11.143Z,62.92
2019-01-18T08:32:37.746Z,63.40
2019-01-18T08:35:06.821Z,63.33
2019-01-18T08:37:33.151Z,63.11
2019-01-18T08:39:59.762Z,62.93
2019-01-18T08:42:26.344Z,63.97
2019-01-18T08:44:52.674Z,63.18
2019-01-18T08:47:19.288Z,63.85
2019-01-18T08:49:45.593Z,66.16
2019-01-18T08:52:12.155Z,66.66
2019-01-18T08:54:38.513Z,66.64
2019-01-18T08:57:05.179Z,65.18
2019-01-18T08:59:31.481Z,65.17
2019-01-18T09:01:57.806Z,63.85
2019-01-18T09:04:24.114Z,63.80
2019-01-18T09:06:50.722Z,62.80
2019-01-18T09:09:17.075Z,61.47
2019-01-18T09:11:43.466Z,63.02
2019-01-18T09:14:10.271Z,62.84
2019-01-18T09:16:36.575Z,62.40
2019-01-18T09:19:03.202Z,62.22
2019-01-18T09:21:29.522Z,62.51
2019-01-18T09:23:56.224Z,62.33
2019-01-18T09:26:23.568Z,61.10
2019-01-18T09:28:49.909Z,61.01
2019-01-18T09:31:16.253Z,60.43
2019-01-18T09:33:42.540Z,58.73
2019-01-18T09:36:08.867Z,58.54
2019-01-18T09:38:35.200Z,59.21
2019-01-18T09:41:01.524Z,58.74
2019-01-18T09:43:27.859Z,59.09
2019-01-18T09:45:54.166Z,57.03
2019-01-18T09:48:20.546Z,58.11
2019-01-18T09:50:47.118Z,58.14
2019-01-18T09:53:13.801Z,56.57
2019-01-18T09:55:40.108Z,55.95
2019-01-18T09:58:06.803Z,55.87
2019-01-18T10:00:36.142Z,54.65
2019-01-18T10:03:03.635Z,54.82
2019-01-18T10:05:30.169Z,53.69
2019-01-18T10:07:56.775Z,53.70
2019-01-18T10:10:23.489Z,53.36
2019-01-18T10:12:50.297Z,54.89
2019-01-18T10:15:29.963Z,55.04
2019-01-18T10:18:00.562Z,54.16
2019-01-18T10:20:25.538Z,54.13
2019-01-18T10:22:55.133Z,53.87
2019-01-18T10:25:21.767Z,55.20
2019-01-18T10:27:48.350Z,54.92
2019-01-18T10:30:24.200Z,54.36
2019-01-18T10:32:50.500Z,53.94
2019-01-18T10:35:17.375Z,53.48
2019-01-18T10:37:43.675Z,52.37
2019-01-18T10:40:12.935Z,50.75
2019-01-18T10:42:40.586Z,49.90
2019-01-18T10:45:11.274Z,51.27
2019-01-18T10:47:37.594Z,53.86
2019-01-18T10:50:09.189Z,55.10
2019-01-18T10:52:35.513Z,55.52
2019-01-18T10:55:03.402Z,56.84
2019-01-18T10:57:30.649Z,57.27
2019-01-18T10:59:57.236Z,58.08
2019-01-18T11:02:23.862Z,59.90
2019-01-18T11:04:50.188Z,59.38
2019-01-18T11:07:17.878Z,58.84
2019-01-18T11:09:44.242Z,58.93
2019-01-18T11:12:11.018Z,58.61
2019-01-18T11:14:37.788Z,57.62
2019-01-18T11:17:04.236Z,56.83
2019-01-18T11:19:30.847Z,56.39
2019-01-18T11:21:57.683Z,55.19
2019-01-18T11:24:24.338Z,54.62
2019-01-18T11:26:51.974Z,53.70
2019-01-18T11:29:19.719Z,54.06
2019-01-18T11:31:46.537Z,53.78
2019-01-18T11:34:13.150Z,54.34
2019-01-18T11:36:39.464Z,54.39
2019-01-18T11:39:07.835Z,55.64
2019-01-18T11:41:35.353Z,55.48
2019-01-18T11:44:02.057Z,54.78
2019-01-18T11:46:28.650Z,54.47
2019-01-18T11:48:54.991Z,52.23
2019-01-18T11:51:21.528Z,51.59
2019-01-18T11:53:49.161Z,51.61
2019-01-18T11:56:15.802Z,50.65
2019-01-18T11:58:42.394Z,50.45
2019-01-18T12:01:09.280Z,50.04
2019-01-18T12:03:35.591Z,48.99
2019-01-18T12:06:01.970Z,48.28
2019-01-18T12:08:28.643Z,49.10
2019-01-18T12:10:55.247Z,49.61
2019-01-18T12:13:21.617Z,51.01
2019-01-18T12:15:47.949Z,51.31
2019-01-18T12:18:15.330Z,51.06
2019-01-18T12:20:41.757Z,50.79
2019-01-18T12:23:08.090Z,50.93
2019-01-18T12:25:35.020Z,52.22
2019-01-18T12:28:01.462Z,51.20
2019-01-18T12:30:31.051Z,50.73
2019-01-18T12:32:57.658Z,50.88
2019-01-18T12:35:24.426Z,50.18
2019-01-18T12:37:50.728Z,52.47
2019-01-18T12:40:23.520Z,51.13
2019-01-18T12:42:50.281Z,50.42
2019-01-18T12:45:20.170Z,50.77
2019-01-18T12:47:46.728Z,49.97
2019-01-18T12:50:26.430Z,50.03
2019-01-18T12:52:52.729Z,50.16
2019-01-18T12:55:19.310Z,50.46
2019-01-18T12:57:45.844Z,47.32
2019-01-18T13:00:17.069Z,40.48
2019-01-18T13:02:43.784Z,41.08
2019-01-18T13:05:15.120Z,44.10
2019-01-18T13:07:41.483Z,45.83
2019-01-18T13:10:12.149Z,45.89
2019-01-18T13:12:36.998Z,47.18
2019-01-18T13:15:17.986Z,47.06
2019-01-18T13:17:44.585Z,42.76
2019-01-18T13:20:11.647Z,38.28
2019-01-18T13:22:37.993Z,33.20
2019-01-18T13:25:14.128Z,31.85
2019-01-18T13:27:40.889Z,30.03
2019-01-18T13:30:17.706Z,27.46
2019-01-18T13:32:44.378Z,29.76
2019-01-18T13:35:10.895Z,28.35
2019-01-18T13:37:37.347Z,27.99
2019-01-18T13:40:14.542Z,28.45
2019-01-18T13:42:41.955Z,28.17
2019-01-18T13:45:11.006Z,26.35
2019-01-18T13:47:38.401Z,27.32
2019-01-18T13:50:12.667Z,29.62
2019-01-18T13:52:39.375Z,29.59
2019-01-18T13:55:11.380Z,30.66
2019-01-18T13:57:37.702Z,29.32
2019-01-18T14:00:09.522Z,28.38
2019-01-18T14:02:35.958Z,28.07
2019-01-18T14:05:06.558Z,27.54
2019-01-18T14:07:33.233Z,26.83
2019-01-18T14:09:59.836Z,28.69
2019-01-18T14:12:28.444Z,28.39
2019-01-18T14:14:55.237Z,26.45
2019-01-18T14:17:23.846Z,26.51
2019-01-18T14:19:50.181Z,29.95
2019-01-18T14:22:16.775Z,33.01
2019-01-18T14:24:43.082Z,38.02
2019-01-18T14:27:09.801Z,41.31
2019-01-18T14:29:36.125Z,42.38
2019-01-18T14:32:02.450Z,44.16
2019-01-18T14:34:29.038Z,44.16
2019-01-18T14:36:55.677Z,45.81
2019-01-18T14:39:22.031Z,46.86
2019-01-18T14:41:48.344Z,48.21
2019-01-18T14:44:14.746Z,57.07
2019-01-18T14:46:41.328Z,49.99
2019-01-18T14:49:07.720Z,50.01
2019-01-18T14:51:35.091Z,50.39
2019-01-18T14:54:01.466Z,51.45
2019-01-18T14:56:28.020Z,49.99
2019-01-18T14:58:54.556Z,50.47
2019-01-18T15:01:23.033Z,51.19
2019-01-18T15:03:49.351Z,51.32
2019-01-18T15:06:15.967Z,51.33
2019-01-18T15:08:42.588Z,52.62
2019-01-18T15:11:09.965Z,51.79
2019-01-18T15:13:36.260Z,52.82
2019-01-18T15:16:03.847Z,52.83
2019-01-18T15:18:30.412Z,52.33
2019-01-18T15:20:57.119Z,52.68
2019-01-18T15:23:23.708Z,52.62
2019-01-18T15:25:50.123Z,52.80
2019-01-18T15:28:18.421Z,53.04
2019-01-18T15:30:45.094Z,53.59
2019-01-18T15:33:11.435Z,54.14
2019-01-18T15:35:37.748Z,54.05
2019-01-18T15:38:05.394Z,53.57
2019-01-18T15:40:35.907Z,53.51
2019-01-18T15:43:03.339Z,53.82
2019-01-18T15:45:29.760Z,53.92
2019-01-18T15:47:56.341Z,54.43
2019-01-18T15:50:26.237Z,54.25
2019-01-18T15:52:53.035Z,54.43
2019-01-18T15:55:19.715Z,54.97
2019-01-18T15:57:46.280Z,54.98
2019-01-18T16:00:25.968Z,55.80
2019-01-18T16:02:52.759Z,55.99
2019-01-18T16:05:19.581Z,55.77
2019-01-18T16:07:45.925Z,55.79
2019-01-18T16:10:15.298Z,55.98
2019-01-18T16:12:41.816Z,56.10
2019-01-18T16:15:12.485Z,56.08
2019-01-18T16:17:39.307Z,55.89
2019-01-18T16:20:10.738Z,55.93
2019-01-18T16:22:37.304Z,55.73
2019-01-18T16:25:26.728Z,55.93
2019-01-18T16:27:53.378Z,56.53
2019-01-18T16:30:22.502Z,57.06
2019-01-18T16:32:48.794Z,57.10
2019-01-18T16:35:17.288Z,56.95
2019-01-18T16:37:44.186Z,56.81
2019-01-18T16:40:17.583Z,56.90
2019-01-18T16:42:49.033Z,57.25
2019-01-18T16:45:15.466Z,57.71
2019-01-18T16:47:41.785Z,57.43
2019-01-18T16:50:12.563Z,57.34
2019-01-18T16:52:38.994Z,57.57
2019-01-18T16:55:09.807Z,57.92
2019-01-18T16:57:36.164Z,58.02
2019-01-18T17:00:26.112Z,58.25
2019-01-18T17:02:52.692Z,58.17
2019-01-18T17:05:19.263Z,58.52
2019-01-18T17:07:45.951Z,59.03
2019-01-18T17:10:17.286Z,58.72
2019-01-18T17:12:43.711Z,58.46
2019-01-18T17:15:13.712Z,58.57
2019-01-18T17:17:40.219Z,58.58
2019-01-18T17:20:15.079Z,58.77
2019-01-18T17:22:41.870Z,58.89
2019-01-18T17:25:08.553Z,58.75
2019-01-18T17:27:34.980Z,59.90
2019-01-18T17:30:01.292Z,60.52
2019-01-18T17:32:28.008Z,60.65
2019-01-18T17:34:54.561Z,60.36
2019-01-18T17:37:21.718Z,60.46
2019-01-18T17:39:48.412Z,60.46
2019-01-18T17:42:36.003Z,60.61
2019-01-18T17:45:13.576Z,60.90
2019-01-18T17:48:11.908Z,60.95
2019-01-18T17:50:49.227Z,60.75
2019-01-18T17:53:41.895Z,60.72
2019-01-18T17:56:49.181Z,60.73
2019-01-18T17:59:53.203Z,60.85
2019-01-18T18:02:28.819Z,60.93
2019-01-18T18:05:21.828Z,61.05
2019-01-18T18:07:56.855Z,61.22
2019-01-18T18:11:04.254Z,61.42
2019-01-18T18:13:51.192Z,61.47
2019-01-18T18:16:34.888Z,61.93
2019-01-18T18:19:29.335Z,61.82
2019-01-18T18:22:40.539Z,61.94
2019-01-18T18:25:34.794Z,61.90
2019-01-18T18:28:30.479Z,61.75
2019-01-18T18:31:08.404Z,61.81
2019-01-18T18:33:50.300Z,61.84
2019-01-18T18:36:31.564Z,61.73
2019-01-18T18:39:15.861Z,62.25
2019-01-18T18:41:50.887Z,62.27
2019-01-18T18:45:00.287Z,62.20
2019-01-18T18:47:32.563Z,62.21
2019-01-18T18:50:39.401Z,62.07
2019-01-18T18:53:30.342Z,62.15
2019-01-18T18:56:16.778Z,61.97
2019-01-18T18:59:00.767Z,61.92
2019-01-18T19:01:55.129Z,61.57
2019-01-18T19:05:03.353Z,61.49
2019-01-18T19:08:00.625Z,61.45
2019-01-18T19:10:39.367Z,61.47
2019-01-18T19:13:43.183Z,61.55
2019-01-18T19:16:27.155Z,61.92
2019-01-18T19:19:17.621Z,61.58
2019-01-18T19:22:30.729Z,61.64
2019-01-18T19:25:23.639Z,61.36
2019-01-18T19:27:55.657Z,61.48
2019-01-18T19:31:08.064Z,61.36
2019-01-18T19:34:04.413Z,61.33
2019-01-18T19:36:48.291Z,61.24
2019-01-18T19:39:51.630Z,60.75
2019-01-18T19:42:41.068Z,60.68
2019-01-18T19:45:13.337Z,60.43
2019-01-18T19:47:56.594Z,60.58
2019-01-18T19:50:55.371Z,60.71
2019-01-18T19:53:44.787Z,60.76
2019-01-18T19:56:26.037Z,60.79
2019-01-18T19:59:00.850Z,60.81
2019-01-18T20:01:35.968Z,60.45
2019-01-18T20:04:30.267Z,60.10
2019-01-18T20:07:13.917Z,60.01
2019-01-18T20:10:20.339Z,59.78
2019-01-18T20:12:58.162Z,60.14
2019-01-18T20:15:42.536Z,59.92
2019-01-18T20:18:44.075Z,59.67
2019-01-18T20:21:19.353Z,59.73
2019-01-18T20:24:39.390Z,59.98
2019-01-18T20:27:29.639Z,59.76
2019-01-18T20:30:22.149Z,59.85
2019-01-18T20:33:11.981Z,60.06
2019-01-18T20:36:01.641Z,59.71
2019-01-18T20:38:50.580Z,59.76
2019-01-18T20:41:50.858Z,59.86
2019-01-18T20:44:47.068Z,60.08
2019-01-18T20:47:51.085Z,60.04
2019-01-18T20:50:34.687Z,60.28
2019-01-18T20:53:30.177Z,59.81
2019-01-18T20:56:22.668Z,59.03
2019-01-18T20:59:22.725Z,58.97
2019-01-18T21:02:16.749Z,59.19
2019-01-18T21:05:08.353Z,58.83
2019-01-18T21:08:01.694Z,59.11
2019-01-18T21:10:45.752Z,59.24
2019-01-18T21:13:20.882Z,59.32
2019-01-18T21:16:11.115Z,59.21
2019-01-18T21:19:16.028Z,59.48
2019-01-18T21:22:10.059Z,60.54
2019-01-18T21:25:05.777Z,60.77
2019-01-18T21:27:59.279Z,60.72
2019-01-18T21:30:40.288Z,61.03
2019-01-18T21:33:37.392Z,60.26
2019-01-18T21:36:12.982Z,59.77
2019-01-18T21:39:03.571Z,59.59
2019-01-18T21:41:40.860Z,59.21
2019-01-18T21:44:41.955Z,59.11
2019-01-18T21:47:22.820Z,58.45
2019-01-18T21:50:06.697Z,58.87
2019-01-18T21:52:53.491Z,58.96
2019-01-18T21:55:52.517Z,58.79
2019-01-18T21:58:30.987Z,59.22
2019-01-18T22:01:21.387Z,59.38
2019-01-18T22:04:11.621Z,59.14
2019-01-18T22:07:11.141Z,58.88
2019-01-18T22:10:01.207Z,58.71
2019-01-18T22:12:44.350Z,58.77
2019-01-18T22:15:34.331Z,59.37
2019-01-18T22:18:06.602Z,59.29
2019-01-18T22:20:44.711Z,59.21
2019-01-18T22:23:16.988Z,59.44
2019-01-18T22:26:24.131Z,58.92
2019-01-18T22:29:08.333Z,58.81
2019-01-18T22:32:02.916Z,58.83
2019-01-18T22:34:51.895Z,58.79
2019-01-18T22:37:38.801Z,57.83
2019-01-18T22:40:47.793Z,57.10
2019-01-18T22:43:25.610Z,57.04
2019-01-18T22:46:17.127Z,57.49
2019-01-18T22:49:05.917Z,57.54
2019-01-18T22:51:56.200Z,57.91
2019-01-18T22:54:58.450Z,57.56
2019-01-18T22:57:33.746Z,57.69
2019-01-18T23:00:56.655Z,57.80
2019-01-18T23:03:45.298Z,57.77
2019-01-18T23:06:33.907Z,57.50
2019-01-18T23:09:37.986Z,57.84
2019-01-18T23:12:42.553Z,56.28
2019-01-18T23:15:38.815Z,56.16
2019-01-18T23:18:29.236Z,57.12
2019-01-18T23:21:18.209Z,57.38
2019-01-18T23:23:59.582Z,56.21
2019-01-18T23:27:00.117Z,56.42
2019-01-18T23:29:53.526Z,57.17
2019-01-18T23:32:28.113Z,56.97
2019-01-18T23:35:16.878Z,57.03
2019-01-18T23:38:15.373Z,57.51
2019-01-18T23:41:26.854Z,56.59
2019-01-18T23:44:16.386Z,56.74
2019-01-18T23:47:10.549Z,56.55
2019-01-18T23:50:16.126Z,56.33
2019-01-18T23:52:48.505Z,57.15
2019-01-18T23:55:24.577Z,56.56
2019-01-18T23:58:21.568Z,56.57
